createdAt,value
2023-02-14T00:01:27.876Z,7.63
2023-02-14T00:06:38.909Z,7.00
2023-02-14T00:09:06.740Z,7.00
2023-02-14T00:11:34.477Z,6.97
2023-02-14T00:14:24.384Z,6.37
2023-02-14T00:16:52.171Z,7.03
2023-02-14T00:19:20.543Z,7.00
2023-02-14T00:21:48.245Z,7.13
2023-02-14T00:24:17.141Z,6.73
2023-02-14T00:26:44.843Z,5.60
2023-02-14T00:29:14.716Z,6.63
2023-02-14T00:31:42.802Z,6.77
2023-02-14T00:34:11.221Z,6.33
2023-02-14T00:36:39.070Z,5.83
2023-02-14T00:39:07.165Z,5.53
2023-02-14T00:41:35.032Z,4.70
2023-02-14T00:44:02.897Z,6.03
2023-02-14T00:46:32.060Z,5.37
2023-02-14T00:49:00.851Z,5.83
2023-02-14T00:51:28.875Z,5.23
2023-02-14T00:53:56.638Z,5.97
2023-02-14T00:56:24.364Z,5.50
2023-02-14T00:58:52.021Z,5.50
2023-02-14T01:01:19.801Z,4.97
2023-02-14T01:03:48.994Z,5.73
2023-02-14T01:06:16.903Z,5.47
2023-02-14T01:08:44.726Z,5.27
2023-02-14T01:11:13.660Z,6.17
2023-02-14T01:13:41.628Z,4.40
2023-02-14T01:16:10.548Z,5.07
2023-02-14T01:18:38.342Z,5.47
2023-02-14T01:21:19.069Z,5.17
2023-02-14T01:23:50.175Z,4.97
2023-02-14T01:26:18.131Z,5.50
2023-02-14T01:28:46.043Z,5.50
2023-02-14T01:31:14.817Z,6.67
2023-02-14T01:33:44.191Z,6.20
2023-02-14T01:36:18.141Z,7.27
2023-02-14T01:38:46.212Z,6.33
2023-02-14T01:41:14.268Z,7.20
2023-02-14T01:43:56.849Z,8.20
2023-02-14T01:46:25.157Z,7.60
2023-02-14T01:48:53.292Z,6.87
2023-02-14T01:51:22.539Z,7.60
2023-02-14T01:53:50.295Z,7.53
2023-02-14T01:56:21.012Z,8.13
2023-02-14T01:58:49.316Z,7.43
2023-02-14T02:01:17.263Z,7.70
2023-02-14T02:03:51.808Z,8.27
2023-02-14T02:06:22.662Z,7.77
2023-02-14T02:08:53.360Z,9.23
2023-02-14T02:11:21.005Z,8.10
2023-02-14T02:13:48.908Z,8.90
2023-02-14T02:16:23.619Z,8.30
2023-02-14T02:18:57.563Z,8.03
2023-02-14T02:21:58.096Z,8.03
2023-02-14T02:24:33.711Z,8.17
2023-02-14T02:27:31.362Z,8.50
2023-02-14T02:30:19.062Z,7.80
2023-02-14T02:33:38.121Z,8.77
2023-02-14T02:36:25.342Z,8.77
2023-02-14T02:39:01.337Z,8.73
2023-02-14T02:41:35.743Z,8.60
2023-02-14T02:44:06.809Z,8.67
2023-02-14T02:46:49.396Z,8.00
2023-02-14T02:49:37.289Z,8.27
2023-02-14T02:52:40.869Z,8.30
2023-02-14T02:55:11.926Z,9.17
2023-02-14T02:57:39.604Z,8.30
2023-02-14T03:00:09.021Z,8.77
2023-02-14T03:02:59.712Z,8.10
2023-02-14T03:05:26.993Z,8.30
2023-02-14T03:07:56.089Z,8.53
2023-02-14T03:10:25.137Z,7.83
2023-02-14T03:13:12.233Z,8.63
2023-02-14T03:15:54.993Z,9.43
2023-02-14T03:18:32.590Z,8.97
2023-02-14T03:21:03.705Z,9.37
2023-02-14T03:23:33.384Z,8.63
2023-02-14T03:26:06.028Z,8.40
2023-02-14T03:28:36.496Z,9.43
2023-02-14T03:31:05.661Z,9.47
2023-02-14T03:33:34.554Z,9.10
2023-02-14T03:36:04.852Z,9.37
2023-02-14T03:38:35.559Z,9.03
2023-02-14T03:41:04.477Z,9.03
2023-02-14T03:43:34.204Z,9.43
2023-02-14T03:46:05.476Z,9.07
2023-02-14T03:48:33.202Z,8.87
2023-02-14T03:51:01.498Z,9.27
2023-02-14T03:53:29.855Z,9.27
2023-02-14T03:56:01.093Z,8.73
2023-02-14T03:58:31.735Z,10.90
2023-02-14T04:01:01.815Z,9.27
2023-02-14T04:03:29.803Z,8.60
2023-02-14T04:05:57.487Z,9.30
2023-02-14T04:08:25.893Z,8.87
2023-02-14T04:10:53.640Z,9.30
2023-02-14T04:13:22.736Z,9.17
2023-02-14T04:15:50.489Z,9.30
2023-02-14T04:18:35.757Z,9.17
2023-02-14T04:21:03.440Z,8.83
2023-02-14T04:23:31.367Z,9.63
2023-02-14T04:25:59.131Z,9.60
2023-02-14T04:28:28.279Z,9.30
2023-02-14T04:30:56.069Z,9.43
2023-02-14T04:33:25.857Z,9.93
2023-02-14T04:35:53.518Z,9.27
2023-02-14T04:38:21.269Z,9.57
2023-02-14T04:40:49.944Z,9.73
2023-02-14T04:43:17.838Z,10.40
2023-02-14T04:45:49.247Z,10.50
2023-02-14T04:48:17.037Z,10.30
2023-02-14T04:50:44.890Z,11.27
2023-02-14T04:53:12.551Z,10.27
2023-02-14T04:55:40.371Z,9.40
2023-02-14T04:58:08.030Z,10.70
2023-02-14T05:00:36.369Z,9.67
2023-02-14T05:03:05.631Z,9.93
2023-02-14T05:05:33.314Z,9.90
2023-02-14T05:08:02.033Z,9.40
2023-02-14T05:10:29.826Z,10.33
2023-02-14T05:12:57.586Z,10.60
2023-02-14T05:15:25.272Z,10.43
2023-02-14T05:17:52.982Z,9.57
2023-02-14T05:20:22.166Z,10.40
2023-02-14T05:22:50.029Z,10.50
2023-02-14T05:25:17.768Z,9.20
2023-02-14T05:27:45.486Z,10.37
2023-02-14T05:30:14.604Z,9.73
2023-02-14T05:32:42.305Z,10.83
2023-02-14T05:35:10.238Z,10.33
2023-02-14T05:37:39.331Z,11.43
2023-02-14T05:40:09.138Z,11.30
2023-02-14T05:42:37.075Z,11.10
2023-02-14T05:45:05.130Z,11.33
2023-02-14T05:47:33.781Z,10.40
2023-02-14T05:50:01.591Z,12.13
2023-02-14T05:52:31.357Z,11.33
2023-02-14T05:55:00.582Z,10.63
2023-02-14T05:57:29.558Z,11.97
2023-02-14T05:59:57.280Z,12.47
2023-02-14T06:02:25.090Z,12.93
2023-02-14T06:07:39.395Z,12.43
2023-02-14T06:10:10.411Z,12.10
2023-02-14T06:12:41.924Z,12.13
2023-02-14T06:15:10.072Z,13.33
2023-02-14T06:17:37.812Z,12.80
2023-02-14T06:20:06.209Z,13.57
2023-02-14T06:22:34.832Z,13.57
2023-02-14T06:25:02.937Z,14.50
2023-02-14T06:27:38.660Z,13.03
2023-02-14T06:30:07.426Z,13.90
2023-02-14T06:32:35.346Z,14.50
2023-02-14T06:35:10.316Z,14.80
2023-02-14T06:37:38.730Z,14.10
2023-02-14T06:40:07.898Z,14.13
2023-02-14T06:42:37.521Z,16.43
2023-02-14T06:45:05.874Z,15.30
2023-02-14T06:47:35.102Z,15.43
2023-02-14T06:50:12.138Z,15.80
2023-02-14T06:52:42.028Z,14.33
2023-02-14T06:55:12.239Z,17.63
2023-02-14T06:57:45.559Z,16.00
2023-02-14T07:00:16.090Z,17.67
2023-02-14T07:02:50.263Z,18.70
2023-02-14T07:08:08.144Z,16.87
2023-02-14T07:10:35.897Z,17.90
2023-02-14T07:13:06.053Z,17.87
2023-02-14T07:15:34.050Z,17.57
2023-02-14T07:18:01.967Z,16.53
2023-02-14T07:20:30.412Z,16.37
2023-02-14T07:22:58.184Z,16.80
2023-02-14T07:25:28.316Z,17.37
2023-02-14T07:27:59.365Z,17.30
2023-02-14T07:30:32.754Z,16.83
2023-02-14T07:33:01.193Z,17.93
2023-02-14T07:35:29.209Z,20.67
2023-02-14T07:37:57.248Z,17.93
2023-02-14T07:40:25.923Z,13.60
2023-02-14T07:42:54.223Z,11.60
2023-02-14T07:45:22.566Z,11.37
2023-02-14T07:47:52.014Z,10.87
2023-02-14T07:50:21.050Z,10.50
2023-02-14T07:52:48.959Z,11.27
2023-02-14T07:55:17.456Z,11.07
2023-02-14T07:57:45.250Z,11.33
2023-02-14T08:00:15.029Z,12.03
2023-02-14T08:02:42.780Z,11.50
2023-02-14T08:05:12.117Z,11.53
2023-02-14T08:07:40.221Z,12.23
2023-02-14T08:10:11.384Z,11.90
2023-02-14T08:13:00.935Z,12.07
2023-02-14T08:15:46.824Z,14.70
2023-02-14T08:18:14.975Z,11.47
2023-02-14T08:23:39.102Z,12.73
2023-02-14T08:26:09.858Z,11.87
2023-02-14T08:28:40.386Z,12.90
2023-02-14T08:31:08.487Z,13.10
2023-02-14T08:33:36.501Z,12.13
2023-02-14T08:36:06.426Z,13.67
2023-02-14T08:38:34.323Z,12.80
2023-02-14T08:41:11.127Z,12.25
2023-02-14T08:43:39.341Z,12.07
2023-02-14T08:46:07.338Z,11.85
2023-02-14T08:48:39.110Z,13.30
2023-02-14T08:51:12.346Z,13.10
2023-02-14T08:53:40.564Z,11.80
2023-02-14T08:56:10.368Z,12.07
2023-02-14T08:58:38.778Z,12.13
2023-02-14T09:01:09.523Z,11.88
2023-02-14T09:03:38.513Z,12.00
2023-02-14T09:06:06.822Z,12.30
2023-02-14T09:08:37.206Z,11.75
2023-02-14T09:11:08.396Z,12.52
2023-02-14T09:13:36.280Z,11.10
2023-02-14T09:16:05.462Z,11.27
2023-02-14T09:18:33.515Z,14.23
2023-02-14T09:21:02.070Z,13.30
2023-02-14T09:23:30.107Z,12.35
2023-02-14T09:26:03.727Z,11.60
2023-02-14T09:28:31.850Z,11.70
2023-02-14T09:31:00.085Z,11.43
2023-02-14T09:33:28.988Z,12.23
2023-02-14T09:36:15.872Z,11.88
2023-02-14T09:38:43.600Z,11.15
2023-02-14T09:41:30.861Z,12.30
2023-02-14T09:44:00.733Z,10.68
2023-02-14T09:46:30.586Z,11.07
2023-02-14T09:48:58.399Z,10.52
2023-02-14T09:51:27.653Z,10.40
2023-02-14T09:53:58.211Z,9.88
2023-02-14T09:56:32.175Z,10.60
2023-02-14T09:59:03.750Z,10.35
2023-02-14T10:01:34.041Z,9.88
2023-02-14T10:04:16.422Z,9.57
2023-02-14T10:06:55.743Z,9.68
2023-02-14T10:09:32.086Z,10.00
2023-02-14T10:12:02.361Z,10.23
2023-02-14T10:14:33.937Z,9.77
2023-02-14T10:17:05.528Z,10.23
2023-02-14T10:19:34.846Z,9.43
2023-02-14T10:22:05.639Z,9.82
2023-02-14T10:24:35.346Z,9.70
2023-02-14T10:27:13.100Z,10.25
2023-02-14T10:29:40.878Z,10.35
2023-02-14T10:32:13.061Z,9.98
2023-02-14T10:34:43.332Z,10.75
2023-02-14T10:37:30.968Z,10.35
2023-02-14T10:41:02.554Z,10.20
2023-02-14T10:43:34.844Z,10.57
2023-02-14T10:46:08.116Z,10.55
2023-02-14T10:48:42.667Z,9.90
2023-02-14T10:51:14.862Z,12.38
2023-02-14T10:53:44.202Z,10.25
2023-02-14T10:56:15.422Z,10.25
2023-02-14T10:58:44.968Z,11.00
2023-02-14T11:01:13.976Z,11.18
2023-02-14T11:03:51.014Z,9.95
2023-02-14T11:06:19.030Z,9.98
2023-02-14T11:08:50.247Z,10.77
2023-02-14T11:11:20.467Z,10.77
2023-02-14T11:13:49.993Z,10.25
2023-02-14T11:16:20.951Z,10.40
2023-02-14T11:18:48.967Z,10.20
2023-02-14T11:21:20.857Z,10.48
2023-02-14T11:23:49.994Z,10.02
2023-02-14T11:26:22.354Z,9.90
2023-02-14T11:28:57.175Z,10.32
2023-02-14T11:31:32.744Z,10.13
2023-02-14T11:34:02.372Z,9.55
2023-02-14T11:36:30.776Z,9.52
2023-02-14T11:39:07.444Z,10.57
2023-02-14T11:41:48.616Z,9.90
2023-02-14T11:44:22.493Z,10.32
2023-02-14T11:46:53.365Z,10.77
2023-02-14T11:49:30.900Z,10.23
2023-02-14T11:51:59.596Z,10.25
2023-02-14T11:54:30.625Z,9.40
2023-02-14T11:57:02.925Z,8.77
2023-02-14T11:59:33.645Z,9.05
2023-02-14T12:02:04.187Z,9.55
2023-02-14T12:07:15.451Z,9.52
2023-02-14T12:09:54.706Z,9.80
2023-02-14T12:12:24.669Z,10.18
2023-02-14T12:14:53.941Z,9.40
2023-02-14T12:17:30.041Z,10.63
2023-02-14T12:20:02.282Z,10.18
2023-02-14T12:22:33.002Z,9.75
2023-02-14T12:25:03.829Z,10.10
2023-02-14T12:27:35.554Z,10.05
2023-02-14T12:30:12.640Z,9.52
2023-02-14T12:32:40.679Z,9.38
2023-02-14T12:35:15.567Z,9.30
2023-02-14T12:38:02.786Z,10.48
2023-02-14T12:40:37.883Z,8.93
2023-02-14T12:43:15.992Z,10.05
2023-02-14T12:45:56.860Z,9.77
2023-02-14T12:48:29.553Z,9.25
2023-02-14T12:50:58.626Z,9.20
2023-02-14T12:53:38.391Z,10.05
2023-02-14T12:56:11.136Z,9.13
2023-02-14T12:58:44.895Z,9.70
2023-02-14T13:01:38.436Z,9.38
2023-02-14T13:04:33.024Z,9.90
2023-02-14T13:07:02.994Z,9.80
2023-02-14T13:09:35.735Z,9.25
2023-02-14T13:12:09.643Z,9.93
2023-02-14T13:14:44.106Z,9.27
2023-02-14T13:17:17.970Z,9.40
2023-02-14T13:19:47.735Z,9.35
2023-02-14T13:22:17.462Z,9.10
2023-02-14T13:24:47.629Z,9.18
2023-02-14T13:27:21.909Z,8.85
2023-02-14T13:29:59.049Z,10.00
2023-02-14T13:32:31.935Z,9.13
2023-02-14T13:34:59.787Z,9.25
2023-02-14T13:37:28.252Z,9.10
2023-02-14T13:39:57.069Z,9.10
2023-02-14T13:42:56.783Z,9.73
2023-02-14T13:45:59.394Z,8.95
2023-02-14T13:48:29.265Z,8.88
2023-02-14T13:50:58.139Z,9.48
2023-02-14T13:53:35.119Z,9.10
2023-02-14T13:56:04.135Z,8.90
2023-02-14T13:58:32.083Z,9.25
2023-02-14T14:00:59.922Z,8.30
2023-02-14T14:03:58.522Z,9.40
2023-02-14T14:06:27.345Z,9.48
2023-02-14T14:08:56.915Z,8.82
2023-02-14T14:11:59.242Z,9.10
2023-02-14T14:14:36.492Z,9.60
2023-02-14T14:17:26.261Z,9.75
2023-02-14T14:19:58.165Z,8.77
2023-02-14T14:22:26.403Z,9.47
2023-02-14T14:24:58.839Z,8.13
2023-02-14T14:27:28.300Z,8.67
2023-02-14T14:29:56.660Z,8.27
2023-02-14T14:32:28.037Z,11.93
2023-02-14T14:34:58.421Z,8.20
2023-02-14T14:37:27.112Z,8.10
2023-02-14T14:39:56.479Z,8.13
2023-02-14T14:42:25.102Z,8.27
2023-02-14T14:44:53.573Z,8.77
2023-02-14T14:47:22.747Z,8.40
2023-02-14T14:49:50.510Z,8.40
2023-02-14T14:52:27.484Z,7.77
2023-02-14T14:54:55.233Z,8.10
2023-02-14T14:57:22.899Z,8.33
2023-02-14T14:59:51.794Z,8.27
2023-02-14T15:02:23.513Z,8.07
2023-02-14T15:04:51.206Z,8.80
2023-02-14T15:07:20.153Z,7.50
2023-02-14T15:09:49.460Z,7.60
2023-02-14T15:12:37.167Z,7.80
2023-02-14T15:15:05.694Z,7.50
2023-02-14T15:17:33.621Z,8.17
2023-02-14T15:20:02.250Z,8.20
2023-02-14T15:22:31.401Z,7.60
2023-02-14T15:25:00.884Z,7.87
2023-02-14T15:27:28.838Z,8.60
2023-02-14T15:29:57.989Z,8.20
2023-02-14T15:32:26.031Z,8.63
2023-02-14T15:34:53.912Z,7.77
2023-02-14T15:37:22.237Z,8.07
2023-02-14T15:39:52.503Z,7.87
2023-02-14T15:43:17.657Z,8.07
2023-02-14T15:45:46.859Z,8.80
2023-02-14T15:48:20.386Z,7.93
2023-02-14T15:50:49.291Z,8.27
2023-02-14T15:53:32.451Z,8.40
2023-02-14T15:56:04.972Z,8.10
2023-02-14T15:58:33.439Z,8.43
2023-02-14T16:01:03.535Z,7.80
2023-02-14T16:03:35.855Z,8.50
2023-02-14T16:06:04.113Z,8.80
2023-02-14T16:08:33.171Z,8.70
2023-02-14T16:11:05.270Z,8.70
2023-02-14T16:13:34.287Z,7.87
2023-02-14T16:16:04.433Z,7.90
2023-02-14T16:18:37.309Z,8.43
2023-02-14T16:21:15.878Z,8.93
2023-02-14T16:23:44.876Z,8.37
2023-02-14T16:26:12.918Z,8.67
2023-02-14T16:28:43.046Z,7.83
2023-02-14T16:31:16.145Z,9.03
2023-02-14T16:33:44.670Z,8.70
2023-02-14T16:36:17.879Z,8.37
2023-02-14T16:38:46.038Z,8.37
2023-02-14T16:41:18.466Z,8.57
2023-02-14T16:43:46.608Z,8.77
2023-02-14T16:46:18.571Z,9.60
2023-02-14T16:48:46.434Z,9.70
2023-02-14T16:51:15.173Z,8.57
2023-02-14T16:53:43.499Z,9.23
2023-02-14T16:56:12.505Z,9.17
2023-02-14T16:58:40.760Z,9.60
2023-02-14T17:01:08.958Z,9.97
2023-02-14T17:03:39.985Z,9.63
2023-02-14T17:06:08.133Z,9.67
2023-02-14T17:08:36.236Z,9.57
2023-02-14T17:11:04.645Z,9.00
2023-02-14T17:13:33.683Z,9.63
2023-02-14T17:16:01.937Z,10.37
2023-02-14T17:18:30.699Z,9.53
2023-02-14T17:21:01.249Z,8.87
2023-02-14T17:23:30.320Z,8.67
2023-02-14T17:25:58.218Z,9.43
2023-02-14T17:28:27.088Z,9.97
2023-02-14T17:30:56.680Z,10.23
2023-02-14T17:33:25.982Z,10.10
2023-02-14T17:35:53.759Z,9.53
2023-02-14T17:38:23.085Z,9.70
2023-02-14T17:40:50.971Z,9.60
2023-02-14T17:43:18.990Z,9.20
2023-02-14T17:45:46.954Z,9.27
2023-02-14T17:48:17.818Z,11.33
2023-02-14T17:50:45.676Z,10.57
2023-02-14T17:53:14.525Z,12.30
2023-02-14T17:55:44.044Z,11.60
2023-02-14T17:58:11.943Z,10.10
2023-02-14T18:00:39.933Z,10.90
2023-02-14T18:03:08.021Z,10.87
2023-02-14T18:05:37.275Z,9.50
2023-02-14T18:08:05.228Z,11.43
2023-02-14T18:10:35.896Z,10.47
2023-02-14T18:13:07.687Z,9.97
2023-02-14T18:15:37.638Z,10.60
2023-02-14T18:23:14.602Z,18.30
2023-02-14T18:25:42.319Z,11.20
2023-02-14T18:28:11.367Z,10.53
2023-02-14T18:30:39.069Z,10.80
2023-02-14T18:33:06.805Z,12.97
2023-02-14T18:35:35.554Z,10.87
2023-02-14T18:38:03.490Z,15.23
2023-02-14T18:40:31.236Z,73.73
2023-02-14T18:42:58.960Z,25.80
2023-02-14T18:45:28.200Z,20.93
2023-02-14T18:47:56.104Z,30.30
2023-02-14T18:50:23.792Z,12.50
2023-02-14T18:52:51.668Z,12.17
2023-02-14T18:55:19.519Z,12.87
2023-02-14T18:57:47.387Z,11.80
2023-02-14T19:00:15.988Z,12.60
2023-02-14T19:02:45.230Z,13.27
2023-02-14T19:05:13.468Z,12.30
2023-02-14T19:07:41.269Z,12.20
2023-02-14T19:10:10.935Z,12.53
2023-02-14T19:12:38.803Z,12.03
2023-02-14T19:15:07.675Z,12.57
2023-02-14T19:17:36.114Z,22.43
2023-02-14T19:20:09.559Z,13.30
2023-02-14T19:22:40.283Z,13.10
2023-02-14T19:25:08.288Z,12.93
2023-02-14T19:27:36.959Z,12.47
2023-02-14T19:30:08.182Z,12.03
2023-02-14T19:32:36.889Z,13.53
2023-02-14T19:35:08.035Z,13.60
2023-02-14T19:37:36.257Z,13.80
2023-02-14T19:40:06.394Z,13.03
2023-02-14T19:42:35.504Z,18.07
2023-02-14T19:45:03.199Z,14.43
2023-02-14T19:47:45.987Z,12.60
2023-02-14T19:50:15.550Z,13.47
2023-02-14T19:52:43.880Z,13.77
2023-02-14T19:55:21.261Z,14.70
2023-02-14T19:57:49.010Z,14.13
2023-02-14T20:00:17.889Z,14.37
2023-02-14T20:02:48.052Z,15.87
2023-02-14T20:05:17.508Z,13.83
2023-02-14T20:07:49.158Z,15.43
2023-02-14T20:10:17.164Z,14.20
2023-02-14T20:12:45.112Z,14.80
2023-02-14T20:15:12.796Z,15.93
2023-02-14T20:17:40.756Z,15.70
2023-02-14T20:20:13.271Z,14.97
2023-02-14T20:22:42.427Z,16.10
2023-02-14T20:25:11.213Z,14.17
2023-02-14T20:27:38.972Z,15.00
2023-02-14T20:30:07.977Z,15.03
2023-02-14T20:32:35.932Z,14.57
2023-02-14T20:35:03.646Z,15.37
2023-02-14T20:37:33.631Z,17.23
2023-02-14T20:40:03.383Z,15.50
2023-02-14T20:42:31.214Z,14.97
2023-02-14T20:44:58.903Z,14.77
2023-02-14T20:47:26.750Z,15.30
2023-02-14T20:49:54.401Z,15.20
2023-02-14T20:52:22.330Z,14.63
2023-02-14T20:54:50.080Z,15.50
2023-02-14T20:57:19.223Z,17.77
2023-02-14T20:59:46.914Z,16.17
2023-02-14T21:02:15.896Z,15.47
2023-02-14T21:04:43.580Z,15.93
2023-02-14T21:07:11.402Z,15.63
2023-02-14T21:09:39.314Z,15.33
2023-02-14T21:12:09.853Z,15.47
2023-02-14T21:14:41.865Z,15.90
2023-02-14T21:17:10.898Z,17.13
2023-02-14T21:19:39.770Z,16.03
2023-02-14T21:22:08.154Z,16.10
2023-02-14T21:24:36.338Z,15.43
2023-02-14T21:27:04.002Z,16.77
2023-02-14T21:29:31.739Z,15.53
2023-02-14T21:32:03.421Z,16.60
2023-02-14T21:34:31.659Z,15.70
2023-02-14T21:37:00.777Z,15.57
2023-02-14T21:39:30.888Z,16.63
2023-02-14T21:41:59.662Z,17.03
2023-02-14T21:44:45.180Z,17.07
2023-02-14T21:47:14.256Z,16.20
2023-02-14T21:49:59.654Z,16.13
2023-02-14T21:52:30.089Z,15.50
2023-02-14T21:54:58.944Z,15.57
2023-02-14T21:57:26.992Z,15.97
2023-02-14T21:59:54.819Z,16.53
2023-02-14T22:02:23.879Z,15.20
2023-02-14T22:04:51.823Z,17.37
2023-02-14T22:07:19.494Z,16.40
2023-02-14T22:09:47.420Z,16.20
2023-02-14T22:12:15.029Z,17.67
2023-02-14T22:14:42.854Z,17.20
2023-02-14T22:17:10.515Z,16.87
2023-02-14T22:19:39.747Z,17.13
2023-02-14T22:22:07.614Z,16.97
2023-02-14T22:24:35.295Z,17.13
2023-02-14T22:27:03.093Z,15.67
2023-02-14T22:29:30.765Z,16.47
2023-02-14T22:31:59.543Z,16.30
2023-02-14T22:34:27.268Z,17.37
2023-02-14T22:36:56.438Z,16.13
2023-02-14T22:39:27.222Z,16.90
2023-02-14T22:41:55.020Z,17.07
2023-02-14T22:44:22.675Z,16.77
2023-02-14T22:46:50.469Z,15.97
2023-02-14T22:49:18.162Z,16.77
2023-02-14T22:51:45.947Z,17.33
2023-02-14T22:54:15.807Z,16.47
2023-02-14T22:56:44.446Z,18.47
2023-02-14T22:59:15.746Z,15.53
2023-02-14T23:01:43.794Z,16.53
2023-02-14T23:04:11.507Z,17.10
2023-02-14T23:06:39.525Z,17.13
2023-02-14T23:09:08.812Z,16.87
2023-02-14T23:11:38.650Z,17.97
2023-02-14T23:14:24.286Z,16.53
2023-02-14T23:17:21.211Z,17.17
2023-02-14T23:20:06.221Z,17.23
2023-02-14T23:22:35.063Z,17.50
2023-02-14T23:25:04.326Z,17.40
2023-02-14T23:27:34.676Z,16.53
2023-02-14T23:30:02.968Z,16.03
2023-02-14T23:32:30.650Z,18.23
2023-02-14T23:34:59.101Z,17.27
2023-02-14T23:37:26.803Z,18.20
2023-02-14T23:39:54.440Z,17.53
2023-02-14T23:42:22.236Z,18.77
2023-02-14T23:44:51.246Z,18.47
2023-02-14T23:47:19.014Z,17.60
2023-02-14T23:49:46.707Z,17.50
2023-02-14T23:52:14.645Z,17.60
2023-02-14T23:54:42.274Z,19.33
2023-02-14T23:57:10.153Z,18.53
2023-02-14T23:59:37.805Z,18.00
